sensor_id;sensor_type;location;lat;lon;timestamp;P1;durP1;ratioP1;P2;durP2;ratioP2
29984;SDS011;17387;42.690;23.328;2022-10-31T00:00:53;7.05;;;4.50;;
29984;SDS011;17387;42.690;23.328;2022-10-31T00:03:19;9.43;;;5.00;;
29984;SDS011;17387;42.690;23.328;2022-10-31T00:05:45;8.82;;;4.95;;
29984;SDS011;17387;42.690;23.328;2022-10-31T00:08:12;9.20;;;4.85;;
29984;SDS011;17387;42.690;23.328;2022-10-31T00:10:38;8.35;;;5.18;;
29984;SDS011;17387;42.690;23.328;2022-10-31T00:13:04;9.98;;;5.00;;
29984;SDS011;17387;42.690;23.328;2022-10-31T00:15:30;9.68;;;5.00;;
29984;SDS011;17387;42.690;23.328;2022-10-31T00:17:58;9.32;;;4.80;;
29984;SDS011;17387;42.690;23.328;2022-10-31T00:20:23;9.15;;;5.07;;
29984;SDS011;17387;42.690;23.328;2022-10-31T00:22:49;10.13;;;4.80;;
29984;SDS011;17387;42.690;23.328;2022-10-31T00:25:14;7.88;;;5.05;;
29984;SDS011;17387;42.690;23.328;2022-10-31T00:27:39;8.68;;;4.93;;
29984;SDS011;17387;42.690;23.328;2022-10-31T00:30:05;10.50;;;5.28;;
29984;SDS011;17387;42.690;23.328;2022-10-31T00:32:31;11.25;;;5.05;;
29984;SDS011;17387;42.690;23.328;2022-10-31T00:34:56;11.57;;;4.90;;
29984;SDS011;17387;42.690;23.328;2022-10-31T00:37:22;9.02;;;4.85;;
29984;SDS011;17387;42.690;23.328;2022-10-31T00:39:47;9.63;;;4.65;;
29984;SDS011;17387;42.690;23.328;2022-10-31T00:42:14;9.60;;;5.15;;
29984;SDS011;17387;42.690;23.328;2022-10-31T00:44:40;9.82;;;5.22;;
29984;SDS011;17387;42.690;23.328;2022-10-31T00:47:05;12.45;;;5.03;;
29984;SDS011;17387;42.690;23.328;2022-10-31T00:49:31;8.90;;;5.10;;
29984;SDS011;17387;42.690;23.328;2022-10-31T00:51:56;9.98;;;5.40;;
29984;SDS011;17387;42.690;23.328;2022-10-31T00:54:21;8.27;;;5.32;;
29984;SDS011;17387;42.690;23.328;2022-10-31T00:56:47;11.50;;;5.50;;
29984;SDS011;17387;42.690;23.328;2022-10-31T00:59:12;11.18;;;5.93;;
29984;SDS011;17387;42.690;23.328;2022-10-31T01:01:37;9.77;;;5.85;;
29984;SDS011;17387;42.690;23.328;2022-10-31T01:04:03;10.80;;;5.57;;
29984;SDS011;17387;42.690;23.328;2022-10-31T01:06:28;12.48;;;5.22;;
29984;SDS011;17387;42.690;23.328;2022-10-31T01:08:54;11.07;;;5.82;;
29984;SDS011;17387;42.690;23.328;2022-10-31T01:11:20;12.70;;;5.88;;
29984;SDS011;17387;42.690;23.328;2022-10-31T01:13:49;9.05;;;5.57;;
29984;SDS011;17387;42.690;23.328;2022-10-31T01:16:17;10.55;;;6.10;;
29984;SDS011;17387;42.690;23.328;2022-10-31T01:18:44;11.07;;;5.95;;
29984;SDS011;17387;42.690;23.328;2022-10-31T01:21:10;9.50;;;6.00;;
29984;SDS011;17387;42.690;23.328;2022-10-31T01:23:38;9.05;;;5.55;;
29984;SDS011;17387;42.690;23.328;2022-10-31T01:26:08;9.73;;;5.88;;
29984;SDS011;17387;42.690;23.328;2022-10-31T01:31:12;9.80;;;6.10;;
29984;SDS011;17387;42.690;23.328;2022-10-31T01:33:38;10.32;;;5.68;;
29984;SDS011;17387;42.690;23.328;2022-10-31T01:36:13;13.07;;;6.22;;
29984;SDS011;17387;42.690;23.328;2022-10-31T01:38:41;11.15;;;5.78;;
29984;SDS011;17387;42.690;23.328;2022-10-31T01:41:07;8.38;;;5.72;;
29984;SDS011;17387;42.690;23.328;2022-10-31T01:46:44;11.52;;;6.05;;
29984;SDS011;17387;42.690;23.328;2022-10-31T01:51:48;10.95;;;6.72;;
29984;SDS011;17387;42.690;23.328;2022-10-31T01:54:20;11.30;;;6.53;;
29984;SDS011;17387;42.690;23.328;2022-10-31T01:56:49;14.35;;;7.30;;
29984;SDS011;17387;42.690;23.328;2022-10-31T01:59:19;10.88;;;7.00;;
29984;SDS011;17387;42.690;23.328;2022-10-31T02:04:21;13.13;;;8.25;;
29984;SDS011;17387;42.690;23.328;2022-10-31T02:14:35;13.55;;;8.38;;
29984;SDS011;17387;42.690;23.328;2022-10-31T02:17:01;14.15;;;8.93;;
29984;SDS011;17387;42.690;23.328;2022-10-31T02:19:40;14.73;;;8.43;;
29984;SDS011;17387;42.690;23.328;2022-10-31T02:22:15;15.57;;;8.80;;
29984;SDS011;17387;42.690;23.328;2022-10-31T02:30:22;15.10;;;9.07;;
29984;SDS011;17387;42.690;23.328;2022-10-31T02:32:57;13.73;;;9.45;;
29984;SDS011;17387;42.690;23.328;2022-10-31T02:38:45;18.73;;;9.38;;
29984;SDS011;17387;42.690;23.328;2022-10-31T02:44:16;16.38;;;10.30;;
29984;SDS011;17387;42.690;23.328;2022-10-31T02:52:17;15.40;;;9.43;;
29984;SDS011;17387;42.690;23.328;2022-10-31T02:54:43;15.23;;;10.18;;
29984;SDS011;17387;42.690;23.328;2022-10-31T02:57:10;18.02;;;10.60;;
29984;SDS011;17387;42.690;23.328;2022-10-31T02:59:36;16.92;;;10.35;;
29984;SDS011;17387;42.690;23.328;2022-10-31T03:02:13;16.00;;;10.85;;
29984;SDS011;17387;42.690;23.328;2022-10-31T03:15:28;16.83;;;10.38;;
29984;SDS011;17387;42.690;23.328;2022-10-31T03:17:57;18.17;;;11.07;;
29984;SDS011;17387;42.690;23.328;2022-10-31T03:20:33;16.90;;;10.82;;
29984;SDS011;17387;42.690;23.328;2022-10-31T03:23:13;17.52;;;10.57;;
29984;SDS011;17387;42.690;23.328;2022-10-31T03:25:41;15.05;;;10.57;;
29984;SDS011;17387;42.690;23.328;2022-10-31T03:28:08;19.73;;;10.60;;
29984;SDS011;17387;42.690;23.328;2022-10-31T03:30:37;15.80;;;10.38;;
29984;SDS011;17387;42.690;23.328;2022-10-31T03:33:07;16.60;;;10.60;;
29984;SDS011;17387;42.690;23.328;2022-10-31T03:35:38;19.45;;;11.38;;
29984;SDS011;17387;42.690;23.328;2022-10-31T03:38:07;22.35;;;11.13;;
29984;SDS011;17387;42.690;23.328;2022-10-31T03:40:34;17.50;;;11.13;;
29984;SDS011;17387;42.690;23.328;2022-10-31T03:43:07;20.55;;;11.65;;
29984;SDS011;17387;42.690;23.328;2022-10-31T03:45:37;19.25;;;11.23;;
29984;SDS011;17387;42.690;23.328;2022-10-31T03:50:36;19.63;;;11.27;;
29984;SDS011;17387;42.690;23.328;2022-10-31T03:53:14;20.85;;;11.75;;
29984;SDS011;17387;42.690;23.328;2022-10-31T03:55:58;19.10;;;10.98;;
29984;SDS011;17387;42.690;23.328;2022-10-31T03:58:27;19.02;;;10.63;;
29984;SDS011;17387;42.690;23.328;2022-10-31T04:00:57;21.35;;;10.80;;
29984;SDS011;17387;42.690;23.328;2022-10-31T04:03:28;15.82;;;10.95;;
29984;SDS011;17387;42.690;23.328;2022-10-31T04:05:58;18.33;;;11.05;;
29984;SDS011;17387;42.690;23.328;2022-10-31T04:08:29;21.17;;;12.23;;
29984;SDS011;17387;42.690;23.328;2022-10-31T04:10:58;21.90;;;12.02;;
29984;SDS011;17387;42.690;23.328;2022-10-31T04:13:28;17.73;;;11.05;;
29984;SDS011;17387;42.690;23.328;2022-10-31T04:18:22;20.40;;;11.70;;
29984;SDS011;17387;42.690;23.328;2022-10-31T04:20:48;19.38;;;11.60;;
29984;SDS011;17387;42.690;23.328;2022-10-31T04:23:24;17.67;;;11.45;;
29984;SDS011;17387;42.690;23.328;2022-10-31T04:25:50;19.05;;;11.57;;
29984;SDS011;17387;42.690;23.328;2022-10-31T04:28:16;20.35;;;11.25;;
29984;SDS011;17387;42.690;23.328;2022-10-31T04:30:41;20.95;;;11.02;;
29984;SDS011;17387;42.690;23.328;2022-10-31T04:33:07;19.00;;;11.52;;
29984;SDS011;17387;42.690;23.328;2022-10-31T04:35:32;18.65;;;11.55;;
29984;SDS011;17387;42.690;23.328;2022-10-31T04:37:57;20.73;;;11.55;;
29984;SDS011;17387;42.690;23.328;2022-10-31T04:40:23;18.17;;;11.43;;
29984;SDS011;17387;42.690;23.328;2022-10-31T04:42:48;22.60;;;11.52;;
29984;SDS011;17387;42.690;23.328;2022-10-31T04:45:14;18.60;;;11.27;;
29984;SDS011;17387;42.690;23.328;2022-10-31T04:47:39;22.58;;;11.32;;
29984;SDS011;17387;42.690;23.328;2022-10-31T04:50:04;21.38;;;11.18;;
29984;SDS011;17387;42.690;23.328;2022-10-31T04:52:30;18.80;;;11.90;;
29984;SDS011;17387;42.690;23.328;2022-10-31T04:54:55;18.40;;;11.02;;
29984;SDS011;17387;42.690;23.328;2022-10-31T04:57:21;22.58;;;11.85;;
29984;SDS011;17387;42.690;23.328;2022-10-31T04:59:46;20.52;;;11.50;;
29984;SDS011;17387;42.690;23.328;2022-10-31T05:02:12;18.38;;;11.60;;
29984;SDS011;17387;42.690;23.328;2022-10-31T05:04:37;19.52;;;12.07;;
29984;SDS011;17387;42.690;23.328;2022-10-31T05:07:02;21.00;;;11.60;;
29984;SDS011;17387;42.690;23.328;2022-10-31T05:09:28;21.08;;;12.68;;
29984;SDS011;17387;42.690;23.328;2022-10-31T05:11:53;27.40;;;12.63;;
29984;SDS011;17387;42.690;23.328;2022-10-31T05:14:18;22.58;;;12.20;;
29984;SDS011;17387;42.690;23.328;2022-10-31T05:16:44;21.70;;;12.90;;
29984;SDS011;17387;42.690;23.328;2022-10-31T05:19:09;23.25;;;12.18;;
29984;SDS011;17387;42.690;23.328;2022-10-31T05:21:34;21.63;;;11.98;;
29984;SDS011;17387;42.690;23.328;2022-10-31T05:24:00;22.88;;;13.00;;
29984;SDS011;17387;42.690;23.328;2022-10-31T05:26:25;27.65;;;13.13;;
29984;SDS011;17387;42.690;23.328;2022-10-31T05:28:51;22.27;;;12.88;;
29984;SDS011;17387;42.690;23.328;2022-10-31T05:31:16;19.65;;;13.02;;
29984;SDS011;17387;42.690;23.328;2022-10-31T05:33:41;29.60;;;13.93;;
29984;SDS011;17387;42.690;23.328;2022-10-31T05:36:07;26.23;;;13.07;;
29984;SDS011;17387;42.690;23.328;2022-10-31T05:38:32;28.05;;;14.00;;
29984;SDS011;17387;42.690;23.328;2022-10-31T05:40:58;28.15;;;14.10;;
29984;SDS011;17387;42.690;23.328;2022-10-31T05:43:25;28.65;;;15.68;;
29984;SDS011;17387;42.690;23.328;2022-10-31T05:45:53;29.20;;;14.68;;
29984;SDS011;17387;42.690;23.328;2022-10-31T05:48:19;32.40;;;15.32;;
29984;SDS011;17387;42.690;23.328;2022-10-31T05:50:44;24.92;;;14.82;;
29984;SDS011;17387;42.690;23.328;2022-10-31T05:53:12;32.50;;;15.13;;
29984;SDS011;17387;42.690;23.328;2022-10-31T05:55:37;29.50;;;16.20;;
29984;SDS011;17387;42.690;23.328;2022-10-31T05:58:03;34.05;;;16.42;;
29984;SDS011;17387;42.690;23.328;2022-10-31T06:00:28;39.38;;;17.60;;
29984;SDS011;17387;42.690;23.328;2022-10-31T06:03:00;38.78;;;16.75;;
29984;SDS011;17387;42.690;23.328;2022-10-31T06:05:27;41.95;;;17.80;;
29984;SDS011;17387;42.690;23.328;2022-10-31T06:07:53;28.05;;;15.15;;
29984;SDS011;17387;42.690;23.328;2022-10-31T06:10:19;34.95;;;15.73;;
29984;SDS011;17387;42.690;23.328;2022-10-31T06:12:46;30.23;;;15.85;;
29984;SDS011;17387;42.690;23.328;2022-10-31T06:15:11;28.90;;;15.90;;
29984;SDS011;17387;42.690;23.328;2022-10-31T06:17:37;32.80;;;16.17;;
29984;SDS011;17387;42.690;23.328;2022-10-31T06:20:02;34.03;;;17.05;;
29984;SDS011;17387;42.690;23.328;2022-10-31T06:22:28;36.88;;;19.83;;
29984;SDS011;17387;42.690;23.328;2022-10-31T06:24:54;29.60;;;17.23;;
29984;SDS011;17387;42.690;23.328;2022-10-31T06:27:19;35.40;;;17.98;;
29984;SDS011;17387;42.690;23.328;2022-10-31T06:29:45;30.40;;;16.85;;
29984;SDS011;17387;42.690;23.328;2022-10-31T06:32:11;28.60;;;16.58;;
29984;SDS011;17387;42.690;23.328;2022-10-31T06:34:37;37.42;;;17.80;;
29984;SDS011;17387;42.690;23.328;2022-10-31T06:37:05;31.40;;;18.33;;
29984;SDS011;17387;42.690;23.328;2022-10-31T06:39:32;31.17;;;16.90;;
29984;SDS011;17387;42.690;23.328;2022-10-31T06:41:57;31.30;;;17.23;;
29984;SDS011;17387;42.690;23.328;2022-10-31T06:44:23;29.85;;;17.65;;
29984;SDS011;17387;42.690;23.328;2022-10-31T06:46:48;34.47;;;19.90;;
29984;SDS011;17387;42.690;23.328;2022-10-31T06:49:14;29.35;;;17.05;;
29984;SDS011;17387;42.690;23.328;2022-10-31T06:51:39;28.85;;;16.48;;
29984;SDS011;17387;42.690;23.328;2022-10-31T06:54:04;36.88;;;17.30;;
29984;SDS011;17387;42.690;23.328;2022-10-31T06:56:30;33.90;;;16.35;;
29984;SDS011;17387;42.690;23.328;2022-10-31T06:58:55;24.77;;;15.95;;
29984;SDS011;17387;42.690;23.328;2022-10-31T07:01:20;40.78;;;21.02;;
29984;SDS011;17387;42.690;23.328;2022-10-31T07:03:46;29.80;;;17.50;;
29984;SDS011;17387;42.690;23.328;2022-10-31T07:06:11;30.80;;;16.60;;
29984;SDS011;17387;42.690;23.328;2022-10-31T07:08:37;26.33;;;17.02;;
29984;SDS011;17387;42.690;23.328;2022-10-31T07:11:02;30.88;;;17.23;;
29984;SDS011;17387;42.690;23.328;2022-10-31T07:13:27;36.03;;;18.42;;
29984;SDS011;17387;42.690;23.328;2022-10-31T07:15:54;32.67;;;18.90;;
29984;SDS011;17387;42.690;23.328;2022-10-31T07:18:20;27.67;;;17.92;;
29984;SDS011;17387;42.690;23.328;2022-10-31T07:20:47;35.05;;;17.63;;
29984;SDS011;17387;42.690;23.328;2022-10-31T07:23:13;30.33;;;18.33;;
29984;SDS011;17387;42.690;23.328;2022-10-31T07:25:39;25.50;;;18.30;;
29984;SDS011;17387;42.690;23.328;2022-10-31T07:28:05;29.42;;;18.80;;
29984;SDS011;17387;42.690;23.328;2022-10-31T07:30:31;31.02;;;19.02;;
29984;SDS011;17387;42.690;23.328;2022-10-31T07:32:56;27.08;;;18.08;;
29984;SDS011;17387;42.690;23.328;2022-10-31T07:35:23;31.83;;;18.88;;
29984;SDS011;17387;42.690;23.328;2022-10-31T07:37:51;30.98;;;17.90;;
29984;SDS011;17387;42.690;23.328;2022-10-31T07:40:18;31.45;;;18.38;;
29984;SDS011;17387;42.690;23.328;2022-10-31T07:42:45;28.20;;;17.92;;
29984;SDS011;17387;42.690;23.328;2022-10-31T07:45:13;30.98;;;19.05;;
29984;SDS011;17387;42.690;23.328;2022-10-31T07:47:41;35.30;;;19.00;;
29984;SDS011;17387;42.690;23.328;2022-10-31T07:50:08;29.13;;;18.13;;
29984;SDS011;17387;42.690;23.328;2022-10-31T07:52:35;30.58;;;18.75;;
29984;SDS011;17387;42.690;23.328;2022-10-31T07:55:00;30.95;;;19.20;;
29984;SDS011;17387;42.690;23.328;2022-10-31T07:57:26;30.15;;;18.92;;
29984;SDS011;17387;42.690;23.328;2022-10-31T07:59:52;28.58;;;19.05;;
29984;SDS011;17387;42.690;23.328;2022-10-31T08:02:17;40.50;;;20.10;;
29984;SDS011;17387;42.690;23.328;2022-10-31T08:04:42;34.22;;;19.33;;
29984;SDS011;17387;42.690;23.328;2022-10-31T08:07:08;34.08;;;19.25;;
29984;SDS011;17387;42.690;23.328;2022-10-31T08:09:33;34.08;;;19.08;;
29984;SDS011;17387;42.690;23.328;2022-10-31T08:11:59;35.90;;;20.50;;
29984;SDS011;17387;42.690;23.328;2022-10-31T08:14:24;34.05;;;18.92;;
29984;SDS011;17387;42.690;23.328;2022-10-31T08:16:49;39.88;;;19.45;;
29984;SDS011;17387;42.690;23.328;2022-10-31T08:19:15;33.70;;;19.00;;
29984;SDS011;17387;42.690;23.328;2022-10-31T08:21:40;34.83;;;20.30;;
29984;SDS011;17387;42.690;23.328;2022-10-31T08:24:06;39.38;;;19.88;;
29984;SDS011;17387;42.690;23.328;2022-10-31T08:26:31;34.90;;;20.58;;
29984;SDS011;17387;42.690;23.328;2022-10-31T08:28:57;34.20;;;19.58;;
29984;SDS011;17387;42.690;23.328;2022-10-31T08:31:23;34.33;;;20.70;;
29984;SDS011;17387;42.690;23.328;2022-10-31T08:33:51;36.83;;;20.30;;
29984;SDS011;17387;42.690;23.328;2022-10-31T08:36:17;36.50;;;21.27;;
29984;SDS011;17387;42.690;23.328;2022-10-31T08:38:42;32.95;;;20.23;;
29984;SDS011;17387;42.690;23.328;2022-10-31T08:41:11;32.00;;;20.55;;
29984;SDS011;17387;42.690;23.328;2022-10-31T08:43:36;35.08;;;20.88;;
29984;SDS011;17387;42.690;23.328;2022-10-31T08:46:01;33.63;;;20.50;;
29984;SDS011;17387;42.690;23.328;2022-10-31T08:48:27;29.38;;;20.67;;
29984;SDS011;17387;42.690;23.328;2022-10-31T08:50:55;30.33;;;19.60;;
29984;SDS011;17387;42.690;23.328;2022-10-31T08:53:23;31.67;;;18.65;;
29984;SDS011;17387;42.690;23.328;2022-10-31T08:55:48;26.83;;;17.35;;
29984;SDS011;17387;42.690;23.328;2022-10-31T08:58:15;30.38;;;19.02;;
29984;SDS011;17387;42.690;23.328;2022-10-31T09:00:43;28.25;;;18.00;;
29984;SDS011;17387;42.690;23.328;2022-10-31T09:03:13;34.65;;;20.52;;
29984;SDS011;17387;42.690;23.328;2022-10-31T09:05:44;36.58;;;20.40;;
29984;SDS011;17387;42.690;23.328;2022-10-31T09:08:10;30.95;;;16.58;;
29984;SDS011;17387;42.690;23.328;2022-10-31T09:10:36;28.33;;;16.83;;
29984;SDS011;17387;42.690;23.328;2022-10-31T09:13:06;26.85;;;15.75;;
29984;SDS011;17387;42.690;23.328;2022-10-31T09:15:34;31.75;;;16.45;;
29984;SDS011;17387;42.690;23.328;2022-10-31T09:18:01;28.48;;;17.08;;
29984;SDS011;17387;42.690;23.328;2022-10-31T09:20:27;27.10;;;15.63;;
29984;SDS011;17387;42.690;23.328;2022-10-31T09:22:59;22.85;;;14.77;;
29984;SDS011;17387;42.690;23.328;2022-10-31T09:25:27;30.00;;;16.00;;
29984;SDS011;17387;42.690;23.328;2022-10-31T09:27:57;29.48;;;15.75;;
29984;SDS011;17387;42.690;23.328;2022-10-31T09:30:23;23.92;;;14.65;;
29984;SDS011;17387;42.690;23.328;2022-10-31T09:32:56;28.00;;;14.55;;
29984;SDS011;17387;42.690;23.328;2022-10-31T09:35:22;23.27;;;13.48;;
29984;SDS011;17387;42.690;23.328;2022-10-31T09:37:53;22.52;;;13.02;;
29984;SDS011;17387;42.690;23.328;2022-10-31T09:40:39;20.02;;;14.20;;
29984;SDS011;17387;42.690;23.328;2022-10-31T09:51:31;20.25;;;12.30;;
29984;SDS011;17387;42.690;23.328;2022-10-31T09:54:08;20.73;;;11.77;;
29984;SDS011;17387;42.690;23.328;2022-10-31T09:56:39;19.95;;;11.57;;
29984;SDS011;17387;42.690;23.328;2022-10-31T09:59:06;19.77;;;10.57;;
29984;SDS011;17387;42.690;23.328;2022-10-31T10:01:48;19.88;;;10.43;;
29984;SDS011;17387;42.690;23.328;2022-10-31T10:07:00;18.40;;;11.10;;
29984;SDS011;17387;42.690;23.328;2022-10-31T10:09:31;16.70;;;9.07;;
29984;SDS011;17387;42.690;23.328;2022-10-31T10:17:11;13.63;;;7.97;;
29984;SDS011;17387;42.690;23.328;2022-10-31T10:19:53;12.50;;;7.10;;
29984;SDS011;17387;42.690;23.328;2022-10-31T10:27:47;18.25;;;8.48;;
29984;SDS011;17387;42.690;23.328;2022-10-31T10:33:32;18.30;;;6.90;;
29984;SDS011;17387;42.690;23.328;2022-10-31T10:36:06;14.40;;;7.40;;
29984;SDS011;17387;42.690;23.328;2022-10-31T10:41:22;14.18;;;5.18;;
29984;SDS011;17387;42.690;23.328;2022-10-31T10:43:49;10.70;;;5.78;;
29984;SDS011;17387;42.690;23.328;2022-10-31T10:49:44;11.45;;;5.70;;
29984;SDS011;17387;42.690;23.328;2022-10-31T11:00:39;24.52;;;7.03;;
29984;SDS011;17387;42.690;23.328;2022-10-31T11:03:15;17.35;;;7.05;;
29984;SDS011;17387;42.690;23.328;2022-10-31T11:05:49;14.02;;;6.32;;
29984;SDS011;17387;42.690;23.328;2022-10-31T11:13:57;14.43;;;6.00;;
29984;SDS011;17387;42.690;23.328;2022-10-31T11:16:30;13.80;;;5.22;;
29984;SDS011;17387;42.690;23.328;2022-10-31T11:21:37;9.75;;;5.63;;
29984;SDS011;17387;42.690;23.328;2022-10-31T11:24:03;11.40;;;5.80;;
29984;SDS011;17387;42.690;23.328;2022-10-31T11:26:39;13.90;;;5.70;;
29984;SDS011;17387;42.690;23.328;2022-10-31T11:29:22;10.80;;;5.30;;
29984;SDS011;17387;42.690;23.328;2022-10-31T11:31:50;11.93;;;5.13;;
29984;SDS011;17387;42.690;23.328;2022-10-31T11:34:42;16.40;;;6.13;;
29984;SDS011;17387;42.690;23.328;2022-10-31T11:37:12;16.75;;;6.15;;
29984;SDS011;17387;42.690;23.328;2022-10-31T11:39:41;9.55;;;4.88;;
29984;SDS011;17387;42.690;23.328;2022-10-31T11:42:18;12.02;;;4.85;;
29984;SDS011;17387;42.690;23.328;2022-10-31T11:44:46;23.42;;;9.20;;
29984;SDS011;17387;42.690;23.328;2022-10-31T11:47:13;12.13;;;5.57;;
29984;SDS011;17387;42.690;23.328;2022-10-31T11:49:42;11.02;;;5.03;;
29984;SDS011;17387;42.690;23.328;2022-10-31T11:52:17;14.85;;;5.40;;
29984;SDS011;17387;42.690;23.328;2022-10-31T11:57:30;9.73;;;4.35;;
29984;SDS011;17387;42.690;23.328;2022-10-31T11:59:58;11.13;;;6.05;;
29984;SDS011;17387;42.690;23.328;2022-10-31T12:02:25;10.48;;;4.38;;
29984;SDS011;17387;42.690;23.328;2022-10-31T12:07:29;10.25;;;5.35;;
29984;SDS011;17387;42.690;23.328;2022-10-31T12:09:55;10.70;;;4.07;;
29984;SDS011;17387;42.690;23.328;2022-10-31T12:23:33;14.68;;;4.90;;
29984;SDS011;17387;42.690;23.328;2022-10-31T12:54:50;11.73;;;5.47;;
29984;SDS011;17387;42.690;23.328;2022-10-31T12:57:47;12.80;;;5.28;;
29984;SDS011;17387;42.690;23.328;2022-10-31T13:00:18;14.60;;;5.05;;
29984;SDS011;17387;42.690;23.328;2022-10-31T13:05:43;14.32;;;5.68;;
29984;SDS011;17387;42.690;23.328;2022-10-31T13:08:16;22.67;;;12.05;;
29984;SDS011;17387;42.690;23.328;2022-10-31T13:10:47;13.77;;;4.80;;
29984;SDS011;17387;42.690;23.328;2022-10-31T13:13:22;9.55;;;4.80;;
29984;SDS011;17387;42.690;23.328;2022-10-31T13:24:55;12.65;;;5.18;;
29984;SDS011;17387;42.690;23.328;2022-10-31T13:27:29;18.42;;;8.25;;
29984;SDS011;17387;42.690;23.328;2022-10-31T13:32:40;44.58;;;22.00;;
29984;SDS011;17387;42.690;23.328;2022-10-31T13:37:43;24.30;;;10.60;;
29984;SDS011;17387;42.690;23.328;2022-10-31T13:45:15;17.67;;;6.50;;
29984;SDS011;17387;42.690;23.328;2022-10-31T13:47:59;24.10;;;12.25;;
29984;SDS011;17387;42.690;23.328;2022-10-31T13:50:40;50.47;;;27.92;;
29984;SDS011;17387;42.690;23.328;2022-10-31T13:53:19;32.50;;;20.00;;
29984;SDS011;17387;42.690;23.328;2022-10-31T13:55:48;29.83;;;19.50;;
29984;SDS011;17387;42.690;23.328;2022-10-31T14:00:57;11.20;;;4.03;;
29984;SDS011;17387;42.690;23.328;2022-10-31T14:03:28;16.13;;;5.40;;
29984;SDS011;17387;42.690;23.328;2022-10-31T14:05:57;19.08;;;10.32;;
29984;SDS011;17387;42.690;23.328;2022-10-31T14:08:23;14.20;;;6.90;;
29984;SDS011;17387;42.690;23.328;2022-10-31T14:10:50;14.57;;;5.30;;
29984;SDS011;17387;42.690;23.328;2022-10-31T14:13:20;19.27;;;6.22;;
29984;SDS011;17387;42.690;23.328;2022-10-31T14:18:37;37.58;;;22.95;;
29984;SDS011;17387;42.690;23.328;2022-10-31T14:23:50;20.13;;;8.18;;
29984;SDS011;17387;42.690;23.328;2022-10-31T14:28:55;16.85;;;8.07;;
29984;SDS011;17387;42.690;23.328;2022-10-31T14:36:37;17.10;;;7.10;;
29984;SDS011;17387;42.690;23.328;2022-10-31T14:39:17;17.17;;;8.25;;
29984;SDS011;17387;42.690;23.328;2022-10-31T14:41:55;34.38;;;16.48;;
29984;SDS011;17387;42.690;23.328;2022-10-31T14:52:23;21.02;;;10.23;;
29984;SDS011;17387;42.690;23.328;2022-10-31T14:54:53;23.33;;;9.23;;
29984;SDS011;17387;42.690;23.328;2022-10-31T14:59:50;58.10;;;23.58;;
29984;SDS011;17387;42.690;23.328;2022-10-31T15:02:37;22.40;;;10.23;;
29984;SDS011;17387;42.690;23.328;2022-10-31T15:05:23;20.13;;;9.30;;
29984;SDS011;17387;42.690;23.328;2022-10-31T15:07:52;24.13;;;10.73;;
29984;SDS011;17387;42.690;23.328;2022-10-31T15:15:24;28.45;;;10.43;;
29984;SDS011;17387;42.690;23.328;2022-10-31T15:17:55;25.20;;;8.38;;
29984;SDS011;17387;42.690;23.328;2022-10-31T15:20:24;20.00;;;8.52;;
29984;SDS011;17387;42.690;23.328;2022-10-31T15:22:57;81.78;;;28.23;;
29984;SDS011;17387;42.690;23.328;2022-10-31T15:25:30;77.28;;;31.75;;
29984;SDS011;17387;42.690;23.328;2022-10-31T15:27:59;47.47;;;19.90;;
29984;SDS011;17387;42.690;23.328;2022-10-31T15:30:26;48.47;;;17.73;;
29984;SDS011;17387;42.690;23.328;2022-10-31T15:32:54;40.10;;;15.68;;
29984;SDS011;17387;42.690;23.328;2022-10-31T15:35:26;44.55;;;17.15;;
29984;SDS011;17387;42.690;23.328;2022-10-31T15:37:54;89.13;;;36.05;;
29984;SDS011;17387;42.690;23.328;2022-10-31T15:40:22;47.38;;;18.75;;
29984;SDS011;17387;42.690;23.328;2022-10-31T15:42:51;34.80;;;14.57;;
29984;SDS011;17387;42.690;23.328;2022-10-31T15:45:24;33.55;;;13.30;;
29984;SDS011;17387;42.690;23.328;2022-10-31T15:52:52;25.13;;;10.57;;
29984;SDS011;17387;42.690;23.328;2022-10-31T15:55:18;24.98;;;8.88;;
29984;SDS011;17387;42.690;23.328;2022-10-31T15:57:50;25.08;;;8.57;;
29984;SDS011;17387;42.690;23.328;2022-10-31T16:03:06;26.75;;;8.40;;
29984;SDS011;17387;42.690;23.328;2022-10-31T16:05:39;27.55;;;9.50;;
29984;SDS011;17387;42.690;23.328;2022-10-31T16:10:53;37.50;;;17.05;;
29984;SDS011;17387;42.690;23.328;2022-10-31T16:13:24;36.20;;;14.30;;
29984;SDS011;17387;42.690;23.328;2022-10-31T16:15:54;41.05;;;14.40;;
29984;SDS011;17387;42.690;23.328;2022-10-31T16:18:23;41.13;;;14.05;;
29984;SDS011;17387;42.690;23.328;2022-10-31T16:20:50;35.80;;;14.15;;
29984;SDS011;17387;42.690;23.328;2022-10-31T16:23:20;35.00;;;13.30;;
29984;SDS011;17387;42.690;23.328;2022-10-31T16:25:48;42.45;;;14.75;;
29984;SDS011;17387;42.690;23.328;2022-10-31T16:28:18;40.08;;;14.65;;
29984;SDS011;17387;42.690;23.328;2022-10-31T16:30:47;54.30;;;21.50;;
29984;SDS011;17387;42.690;23.328;2022-10-31T16:33:25;56.58;;;21.02;;
29984;SDS011;17387;42.690;23.328;2022-10-31T16:35:53;31.02;;;12.88;;
29984;SDS011;17387;42.690;23.328;2022-10-31T16:38:20;40.42;;;16.83;;
29984;SDS011;17387;42.690;23.328;2022-10-31T16:40:46;51.15;;;17.73;;
29984;SDS011;17387;42.690;23.328;2022-10-31T16:43:16;43.10;;;12.70;;
29984;SDS011;17387;42.690;23.328;2022-10-31T16:45:46;32.90;;;12.85;;
29984;SDS011;17387;42.690;23.328;2022-10-31T16:48:14;40.75;;;15.35;;
29984;SDS011;17387;42.690;23.328;2022-10-31T16:50:47;33.65;;;13.32;;
29984;SDS011;17387;42.690;23.328;2022-10-31T16:53:14;38.13;;;16.88;;
29984;SDS011;17387;42.690;23.328;2022-10-31T16:55:45;42.92;;;15.23;;
29984;SDS011;17387;42.690;23.328;2022-10-31T16:58:18;36.97;;;13.95;;
29984;SDS011;17387;42.690;23.328;2022-10-31T17:00:54;47.35;;;15.32;;
29984;SDS011;17387;42.690;23.328;2022-10-31T17:03:21;40.00;;;15.75;;
29984;SDS011;17387;42.690;23.328;2022-10-31T17:05:47;38.58;;;15.90;;
29984;SDS011;17387;42.690;23.328;2022-10-31T17:08:12;38.63;;;15.57;;
29984;SDS011;17387;42.690;23.328;2022-10-31T17:10:38;39.25;;;15.60;;
29984;SDS011;17387;42.690;23.328;2022-10-31T17:13:06;38.83;;;13.57;;
29984;SDS011;17387;42.690;23.328;2022-10-31T17:15:40;46.20;;;15.30;;
29984;SDS011;17387;42.690;23.328;2022-10-31T17:18:10;53.33;;;21.65;;
29984;SDS011;17387;42.690;23.328;2022-10-31T17:20:37;43.55;;;16.20;;
29984;SDS011;17387;42.690;23.328;2022-10-31T17:23:03;39.72;;;14.50;;
29984;SDS011;17387;42.690;23.328;2022-10-31T17:25:29;47.75;;;16.55;;
29984;SDS011;17387;42.690;23.328;2022-10-31T17:27:59;45.17;;;19.70;;
29984;SDS011;17387;42.690;23.328;2022-10-31T17:30:25;40.42;;;15.50;;
29984;SDS011;17387;42.690;23.328;2022-10-31T17:32:51;47.60;;;16.38;;
29984;SDS011;17387;42.690;23.328;2022-10-31T17:35:17;40.38;;;16.10;;
29984;SDS011;17387;42.690;23.328;2022-10-31T17:37:43;44.03;;;17.20;;
29984;SDS011;17387;42.690;23.328;2022-10-31T17:40:10;46.90;;;16.10;;
29984;SDS011;17387;42.690;23.328;2022-10-31T17:42:37;37.00;;;15.15;;
29984;SDS011;17387;42.690;23.328;2022-10-31T17:45:03;45.80;;;18.55;;
29984;SDS011;17387;42.690;23.328;2022-10-31T17:47:30;50.10;;;18.20;;
29984;SDS011;17387;42.690;23.328;2022-10-31T17:49:55;41.33;;;16.67;;